This is the latest recevied weather packets stored in our database for station/object SP5IZJ-2. If no packets are shown the sender has not sent any weather packets the latest 1 day(s).
| Time | Temp. | Humidity | Pressure | Rain* | Wind** | Luminosity | Snow |
|---|---|---|---|---|---|---|---|
| 1836274557 | 11.11° C | 94% | 1016 hPa | 0 mm | 0 m/s | - | - |
| 1836274139 | 11.11° C | 94% | 1016.1 hPa | 0 mm | 0 m/s | - | - |
| 1778014541 | 16.11° C | 72% | 998.1 hPa | 0 mm | 1.34 m/s, 158° | - | - |
| 1778014121 | 16.67° C | 71% | 998.1 hPa | 0 mm | 1.79 m/s, 180° | - | - |
| 1778013701 | 16.67° C | 71% | 998 hPa | 0 mm | 1.79 m/s, 158° | - | - |
| 1778013281 | 16.67° C | 70% | 998.1 hPa | 0 mm | 1.79 m/s, 158° | - | - |
| 1778012886 | 17.22° C | 69% | 998 hPa | 0 mm | 1.34 m/s, 158° | - | - |
| 1778012442 | 17.22° C | 68% | 997.8 hPa | 0 mm | 2.24 m/s, 158° | - | - |
| 1778010407 | 18.33° C | 64% | 997.7 hPa | 0 mm | 2.24 m/s, 158° | - | - |
| 1778010343 | 18.33° C | 64% | 997.7 hPa | 0 mm | 2.24 m/s, 158° | - | - |
| 1778009923 | 18.33° C | 62% | 997.7 hPa | 0 mm | 1.79 m/s, 135° | - | - |
| 1778009083 | 19.44° C | 57% | 997.6 hPa | 0 mm | 2.24 m/s, 158° | - | - |
| 1778008244 | 20° C | 47% | 997.5 hPa | 0 mm | 1.34 m/s, 135° | - | - |
| 1778007841 | 19.44° C | 41% | 997.3 hPa | 0 mm | 0.45 m/s, 68° | - | - |
| 1778007404 | 17.78° C | 48% | 997.4 hPa | 0 mm | 0.89 m/s, 158° | - | - |
| 1778006988 | 17.78° C | 42% | 997.5 hPa | 0 mm | 0.45 m/s, 135° | - | - |
| 1778006609 | 17.78° C | 40% | 997.2 hPa | 0 mm | 0 m/s | - | - |
| 1778006189 | 17.78° C | 39% | 997 hPa | 0 mm | 0 m/s | - | - |
| 1778005305 | 19.44° C | 37% | 997 hPa | 0 mm | 0 m/s | - | - |
| 1778004940 | 20° C | 35% | 996.7 hPa | 0 mm | 0 m/s | - | - |
| 1778004885 | 20° C | 35% | 996.7 hPa | 0 mm | 0 m/s | - | - |
| 1778004465 | 21.11° C | 34% | 996.9 hPa | 0 mm | 0 m/s | - | - |
| 1778004072 | 21.67° C | 33% | 996.8 hPa | 0 mm | 0 m/s | - | - |
| 1778003206 | 24.44° C | 30% | 996.7 hPa | 0 mm | 0 m/s | - | - |
| 1778002366 | 26.67° C | 28% | 996.8 hPa | 0 mm | 0 m/s | - | - |
* Rain latest hour (hover to see other rain measurements)
** Current wind speed in m/s (hover to see current wind gust speed)